createdAt,value
2018-12-15T00:04:51.641Z,31.91
2018-12-15T00:10:02.625Z,32.19
2018-12-15T00:15:16.651Z,32.17
2018-12-15T00:20:27.645Z,31.93
2018-12-15T00:25:37.863Z,31.96
2018-12-15T00:30:48.601Z,31.97
2018-12-15T00:35:59.853Z,31.78
2018-12-15T00:41:10.687Z,32.04
2018-12-15T00:46:21.365Z,31.95
2018-12-15T00:51:36.307Z,31.67
2018-12-15T00:56:48.610Z,32.04
2018-12-15T01:01:59.756Z,31.82
2018-12-15T01:07:10.507Z,31.57
2018-12-15T01:12:21.643Z,31.93
2018-12-15T01:17:32.826Z,31.73
2018-12-15T01:22:56.311Z,31.72
2018-12-15T01:28:07.740Z,31.84
2018-12-15T01:33:19.628Z,31.94
2018-12-15T01:38:31.863Z,32.12
2018-12-15T01:43:46.627Z,32.49
2018-12-15T01:48:57.250Z,32.13
2018-12-15T01:54:22.691Z,32.31
2018-12-15T01:59:34.598Z,32.38
2018-12-15T02:07:58.265Z,32.19
2018-12-15T02:13:09.042Z,32.31
2018-12-15T02:18:20.609Z,32.43
2018-12-15T02:23:33.383Z,32.30
2018-12-15T02:28:44.629Z,32.39
2018-12-15T02:33:54.573Z,32.27
2018-12-15T02:39:08.201Z,32.33
2018-12-15T02:47:31.653Z,32.44
2018-12-15T02:52:46.707Z,32.14
2018-12-15T02:59:52.351Z,32.15
2018-12-15T03:05:03.877Z,32.15
2018-12-15T03:10:27.716Z,32.26
2018-12-15T03:15:38.565Z,32.24
2018-12-15T03:21:03.384Z,32.29
2018-12-15T03:26:14.618Z,32.12
2018-12-15T03:31:46.443Z,32.36
2018-12-15T03:36:59.775Z,32.35
2018-12-15T03:42:10.613Z,32.14
2018-12-15T03:47:21.682Z,32.20
2018-12-15T03:52:35.801Z,32.13
2018-12-15T03:57:46.672Z,32.07
2018-12-15T04:03:00.629Z,32.85
2018-12-15T04:08:11.734Z,32.72
2018-12-15T04:13:26.901Z,32.67
2018-12-15T04:18:38.316Z,32.81
2018-12-15T04:27:01.680Z,32.71
2018-12-15T04:32:12.806Z,32.93
2018-12-15T04:37:23.622Z,33.08
2018-12-15T04:42:38.904Z,33.10
2018-12-15T04:47:49.629Z,32.88
2018-12-15T04:53:06.814Z,32.65
2018-12-15T04:58:18.393Z,33.05
2018-12-15T05:03:39.915Z,32.95
2018-12-15T05:08:50.883Z,32.81
2018-12-15T05:14:01.596Z,32.74
2018-12-15T05:19:12.828Z,33.28
2018-12-15T05:24:36.617Z,32.84
2018-12-15T05:29:52.527Z,32.97
2018-12-15T05:35:03.865Z,32.70
2018-12-15T05:40:17.699Z,32.74
2018-12-15T05:45:28.642Z,32.50
2018-12-15T05:50:43.611Z,32.30
2018-12-15T05:55:54.671Z,32.14
2018-12-15T06:01:35.724Z,26.61
2018-12-15T06:06:46.861Z,10.90
2018-12-15T06:12:10.834Z,7.40
2018-12-15T06:17:21.643Z,6.24
2018-12-15T06:22:34.843Z,5.78
2018-12-15T06:27:45.628Z,5.56
2018-12-15T06:32:59.616Z,5.45
2018-12-15T06:38:18.595Z,6.49
2018-12-15T06:43:30.312Z,7.90
2018-12-15T06:48:41.770Z,9.21
2018-12-15T06:53:52.883Z,10.43
2018-12-15T06:59:08.699Z,12.12
2018-12-15T07:04:19.840Z,13.74
2018-12-15T07:09:30.917Z,15.35
2018-12-15T07:14:41.721Z,17.16
2018-12-15T07:19:56.879Z,18.09
2018-12-15T07:25:07.348Z,19.57
2018-12-15T07:30:19.238Z,20.60
2018-12-15T07:35:30.706Z,21.64
2018-12-15T07:40:41.755Z,22.50
2018-12-15T07:45:52.898Z,22.80
2018-12-15T07:51:22.633Z,24.12
2018-12-15T07:56:33.644Z,22.77
2018-12-15T08:02:21.655Z,20.32
2018-12-15T08:07:32.740Z,18.04
2018-12-15T08:13:00.527Z,17.75
2018-12-15T08:18:12.544Z,18.43
2018-12-15T08:23:32.630Z,19.33
2018-12-15T08:28:52.861Z,21.03
2018-12-15T08:34:19.729Z,21.89
2018-12-15T08:39:30.905Z,22.72
2018-12-15T08:44:22.690Z,23.75
2018-12-15T08:49:34.664Z,24.27
2018-12-15T08:54:49.488Z,25.12
2018-12-15T09:00:12.456Z,21.89
2018-12-15T09:05:39.944Z,18.71
2018-12-15T09:10:51.660Z,19.29
2018-12-15T09:16:03.217Z,20.14
2018-12-15T09:21:40.942Z,21.22
2018-12-15T09:26:51.642Z,22.03
2018-12-15T09:32:06.686Z,23.58
2018-12-15T09:37:20.191Z,23.81
2018-12-15T09:42:37.802Z,25.00
2018-12-15T09:47:49.833Z,25.87
2018-12-15T09:53:16.682Z,26.34
2018-12-15T09:58:28.224Z,27.08
2018-12-15T10:03:43.687Z,27.17
2018-12-15T10:08:54.777Z,27.09
2018-12-15T10:14:06.508Z,27.46
2018-12-15T10:19:24.074Z,27.60
2018-12-15T10:27:32.277Z,28.31
2018-12-15T10:32:55.625Z,28.97
2018-12-15T10:38:07.623Z,29.18
2018-12-15T10:43:24.567Z,29.12
2018-12-15T10:48:36.312Z,29.07
2018-12-15T10:56:59.230Z,29.32
2018-12-15T11:08:01.887Z,29.51
2018-12-15T11:13:17.396Z,29.83
2018-12-15T11:18:28.813Z,29.83
2018-12-15T11:24:05.881Z,30.41
2018-12-15T11:29:16.599Z,30.45
2018-12-15T11:34:47.957Z,31.03
2018-12-15T11:40:01.552Z,30.82
2018-12-15T11:45:12.838Z,30.62
2018-12-15T11:50:23.675Z,30.61
2018-12-15T11:55:34.729Z,30.56
2018-12-15T12:01:16.010Z,30.10
2018-12-15T12:06:26.593Z,30.43
2018-12-15T12:11:48.302Z,30.55
2018-12-15T12:16:59.702Z,30.84
2018-12-15T12:22:20.795Z,30.97
2018-12-15T12:27:31.908Z,31.05
2018-12-15T12:32:46.543Z,31.16
2018-12-15T12:37:58.373Z,30.86
2018-12-15T12:43:42.442Z,30.85
2018-12-15T12:48:54.633Z,30.96
2018-12-15T12:54:31.462Z,31.14
2018-12-15T12:59:42.659Z,30.51
2018-12-15T13:04:54.426Z,29.22
2018-12-15T13:10:11.312Z,27.96
2018-12-15T13:15:22.755Z,27.28
2018-12-15T13:20:57.299Z,23.43
2018-12-15T13:26:08.809Z,11.68
2018-12-15T13:31:20.751Z,9.98
2018-12-15T13:36:33.622Z,8.59
2018-12-15T13:41:44.798Z,6.74
2018-12-15T13:47:09.561Z,6.00
2018-12-15T13:52:20.655Z,5.93
2018-12-15T13:57:31.792Z,7.44
2018-12-15T14:02:47.604Z,8.88
2018-12-15T15:35:46.647Z,15.25
2018-12-15T15:40:59.691Z,16.70
2018-12-15T15:46:10.902Z,18.51
2018-12-15T15:51:29.410Z,19.97
2018-12-15T15:56:41.312Z,21.14
2018-12-15T16:07:45.225Z,23.53
2018-12-15T16:12:55.600Z,24.59
2018-12-15T16:18:06.647Z,24.69
2018-12-15T16:23:17.771Z,25.54
2018-12-15T16:28:28.729Z,26.36
2018-12-15T16:33:39.859Z,26.70
2018-12-15T16:38:50.710Z,26.65
2018-12-15T16:44:11.900Z,27.04
2018-12-15T16:49:24.061Z,27.16
2018-12-15T16:54:52.223Z,25.78
2018-12-15T17:00:13.800Z,19.71
2018-12-15T17:05:24.860Z,10.06
2018-12-15T17:10:39.777Z,8.47
2018-12-15T17:15:51.331Z,8.31
2018-12-15T17:21:04.617Z,9.63
2018-12-15T17:26:15.985Z,11.25
2018-12-15T17:37:12.222Z,15.09
2018-12-15T17:42:22.625Z,16.82
2018-12-15T17:47:34.579Z,17.79
2018-12-15T17:53:00.031Z,19.11
2018-12-15T17:58:14.714Z,20.79
2018-12-15T18:03:29.648Z,22.02
2018-12-15T18:08:40.755Z,22.44
2018-12-15T18:13:52.470Z,23.69
2018-12-15T18:19:03.801Z,24.23
2018-12-15T18:24:14.783Z,24.93
2018-12-15T18:29:26.317Z,25.71
2018-12-15T18:34:37.784Z,25.90
2018-12-15T18:39:52.314Z,23.34
2018-12-15T18:45:04.489Z,19.72
2018-12-15T18:50:18.841Z,19.60
2018-12-15T18:55:31.761Z,20.63
2018-12-15T19:00:43.229Z,21.68
2018-12-15T19:05:55.173Z,22.87
2018-12-15T19:16:59.882Z,24.62
2018-12-15T19:22:21.563Z,25.24
2018-12-15T19:27:34.622Z,26.06
2018-12-15T19:32:46.318Z,24.24
2018-12-15T19:37:57.762Z,23.52
2018-12-15T19:43:24.787Z,23.01
2018-12-15T19:48:37.657Z,22.17
2018-12-15T19:54:14.705Z,21.75
2018-12-15T19:59:27.591Z,21.83
